sensor_id;sensor_type;location;lat;lon;timestamp;pressure;altitude;pressure_sealevel;temperature;humidity
71974;BME280;59840;52.122;5.404;2023-11-21T00:01:03;101207.53;;;6.90;100.00
71974;BME280;59840;52.122;5.404;2023-11-21T00:03:31;101211.38;;;6.87;100.00
71974;BME280;59840;52.122;5.404;2023-11-21T00:05:58;101211.41;;;6.81;100.00
71974;BME280;59840;52.122;5.404;2023-11-21T00:08:24;101215.28;;;6.71;100.00
71974;BME280;59840;52.122;5.404;2023-11-21T00:10:51;101214.06;;;6.67;100.00
71974;BME280;59840;52.122;5.404;2023-11-21T00:13:18;101221.34;;;6.65;100.00
71974;BME280;59840;52.122;5.404;2023-11-21T00:15:44;101218.31;;;6.68;100.00
71974;BME280;59840;52.122;5.404;2023-11-21T00:18:11;101216.69;;;6.67;100.00
71974;BME280;59840;52.122;5.404;2023-11-21T00:20:38;101222.53;;;6.69;100.00
71974;BME280;59840;52.122;5.404;2023-11-21T00:23:04;101221.34;;;6.65;100.00
71974;BME280;59840;52.122;5.404;2023-11-21T00:25:31;101227.00;;;6.62;100.00
71974;BME280;59840;52.122;5.404;2023-11-21T00:27:58;101238.16;;;6.58;100.00
71974;BME280;59840;52.122;5.404;2023-11-21T00:30:25;101229.47;;;6.57;100.00
71974;BME280;59840;52.122;5.404;2023-11-21T00:32:52;101237.75;;;6.54;100.00
71974;BME280;59840;52.122;5.404;2023-11-21T00:35:19;101227.06;;;6.56;100.00
71974;BME280;59840;52.122;5.404;2023-11-21T00:37:45;101232.50;;;6.54;100.00
71974;BME280;59840;52.122;5.404;2023-11-21T00:40:12;101231.09;;;6.52;100.00
71974;BME280;59840;52.122;5.404;2023-11-21T00:42:41;101230.28;;;6.51;100.00
71974;BME280;59840;52.122;5.404;2023-11-21T00:45:08;101234.13;;;6.55;100.00
71974;BME280;59840;52.122;5.404;2023-11-21T00:47:35;101232.50;;;6.54;100.00
71974;BME280;59840;52.122;5.404;2023-11-21T00:50:02;101244.81;;;6.54;100.00
71974;BME280;59840;52.122;5.404;2023-11-21T00:52:28;101239.16;;;6.50;100.00
71974;BME280;59840;52.122;5.404;2023-11-21T00:54:55;101240.00;;;6.44;100.00
71974;BME280;59840;52.122;5.404;2023-11-21T00:57:21;101245.03;;;6.46;100.00
71974;BME280;59840;52.122;5.404;2023-11-21T00:59:48;101254.31;;;6.48;100.00
71974;BME280;59840;52.122;5.404;2023-11-21T01:02:14;101254.50;;;6.47;100.00
71974;BME280;59840;52.122;5.404;2023-11-21T01:04:41;101259.34;;;6.43;100.00
71974;BME280;59840;52.122;5.404;2023-11-21T01:07:08;101265.00;;;6.40;100.00
71974;BME280;59840;52.122;5.404;2023-11-21T01:09:35;101262.97;;;6.42;100.00
71974;BME280;59840;52.122;5.404;2023-11-21T01:12:01;101274.06;;;6.44;100.00
71974;BME280;59840;52.122;5.404;2023-11-21T01:14:28;101265.41;;;6.44;100.00
71974;BME280;59840;52.122;5.404;2023-11-21T01:16:54;101276.09;;;6.42;100.00
71974;BME280;59840;52.122;5.404;2023-11-21T01:19:21;101277.09;;;6.41;100.00
71974;BME280;59840;52.122;5.404;2023-11-21T01:21:48;101280.72;;;6.40;100.00
71974;BME280;59840;52.122;5.404;2023-11-21T01:24:15;101274.47;;;6.41;100.00
71974;BME280;59840;52.122;5.404;2023-11-21T01:26:41;101270.25;;;6.40;100.00
71974;BME280;59840;52.122;5.404;2023-11-21T01:29:08;101271.25;;;6.39;100.00
71974;BME280;59840;52.122;5.404;2023-11-21T01:31:34;101268.63;;;6.39;100.00
71974;BME280;59840;52.122;5.404;2023-11-21T01:34:01;101268.84;;;6.37;100.00
71974;BME280;59840;52.122;5.404;2023-11-21T01:36:31;101274.50;;;6.34;100.00
71974;BME280;59840;52.122;5.404;2023-11-21T01:39:01;101279.72;;;6.34;100.00
71974;BME280;59840;52.122;5.404;2023-11-21T01:41:34;101277.50;;;6.38;100.00
71974;BME280;59840;52.122;5.404;2023-11-21T01:44:01;101279.31;;;6.44;100.00
71974;BME280;59840;52.122;5.404;2023-11-21T01:46:28;101280.50;;;6.48;100.00
71974;BME280;59840;52.122;5.404;2023-11-21T01:48:55;101286.34;;;6.50;100.00
71974;BME280;59840;52.122;5.404;2023-11-21T01:51:22;101286.34;;;6.50;100.00
71974;BME280;59840;52.122;5.404;2023-11-21T01:53:49;101283.13;;;6.48;100.00
71974;BME280;59840;52.122;5.404;2023-11-21T01:56:16;101288.38;;;6.48;100.00
71974;BME280;59840;52.122;5.404;2023-11-21T01:58:43;101292.81;;;6.48;100.00
71974;BME280;59840;52.122;5.404;2023-11-21T02:01:10;101298.47;;;6.51;100.00
71974;BME280;59840;52.122;5.404;2023-11-21T02:03:36;101301.69;;;6.53;100.00
71974;BME280;59840;52.122;5.404;2023-11-21T02:06:03;101297.66;;;6.51;100.00
71974;BME280;59840;52.122;5.404;2023-11-21T02:08:30;101308.34;;;6.49;100.00
71974;BME280;59840;52.122;5.404;2023-11-21T02:10:57;101318.03;;;6.42;100.00
71974;BME280;59840;52.122;5.404;2023-11-21T02:13:24;101314.59;;;6.42;100.00
71974;BME280;59840;52.122;5.404;2023-11-21T02:15:51;101322.66;;;6.53;100.00
71974;BME280;59840;52.122;5.404;2023-11-21T02:18:18;101318.78;;;6.62;100.00
71974;BME280;59840;52.122;5.404;2023-11-21T02:20:45;101322.19;;;6.69;100.00
71974;BME280;59840;52.122;5.404;2023-11-21T02:23:13;101326.41;;;6.77;100.00
71974;BME280;59840;52.122;5.404;2023-11-21T02:25:41;101335.28;;;6.83;100.00
71974;BME280;59840;52.122;5.404;2023-11-21T02:28:09;101315.47;;;6.87;100.00
71974;BME280;59840;52.122;5.404;2023-11-21T02:30:39;101329.00;;;6.90;100.00
71974;BME280;59840;52.122;5.404;2023-11-21T02:33:06;101323.31;;;6.93;100.00
71974;BME280;59840;52.122;5.404;2023-11-21T02:35:33;101322.88;;;6.96;100.00
71974;BME280;59840;52.122;5.404;2023-11-21T02:38:01;101326.13;;;6.98;100.00
71974;BME280;59840;52.122;5.404;2023-11-21T02:40:28;101328.53;;;7.00;100.00
71974;BME280;59840;52.122;5.404;2023-11-21T02:42:56;101316.00;;;7.02;100.00
71974;BME280;59840;52.122;5.404;2023-11-21T02:45:25;101328.13;;;7.03;100.00
71974;BME280;59840;52.122;5.404;2023-11-21T02:47:52;101334.56;;;7.07;100.00
71974;BME280;59840;52.122;5.404;2023-11-21T02:50:24;101323.66;;;7.10;100.00
71974;BME280;59840;52.122;5.404;2023-11-21T02:52:51;101324.84;;;7.14;100.00
71974;BME280;59840;52.122;5.404;2023-11-21T02:55:18;101328.66;;;7.18;100.00
71974;BME280;59840;52.122;5.404;2023-11-21T02:57:45;101327.66;;;7.19;100.00
71974;BME280;59840;52.122;5.404;2023-11-21T03:00:11;101323.22;;;7.20;100.00
71974;BME280;59840;52.122;5.404;2023-11-21T03:02:40;101328.06;;;7.16;100.00
71974;BME280;59840;52.122;5.404;2023-11-21T03:05:07;101327.22;;;7.22;100.00
71974;BME280;59840;52.122;5.404;2023-11-21T03:07:38;101332.66;;;7.27;100.00
71974;BME280;59840;52.122;5.404;2023-11-21T03:10:06;101329.97;;;7.34;100.00
71974;BME280;59840;52.122;5.404;2023-11-21T03:12:35;101330.38;;;7.37;100.00
71974;BME280;59840;52.122;5.404;2023-11-21T03:15:02;101323.47;;;7.43;100.00
71974;BME280;59840;52.122;5.404;2023-11-21T03:17:29;101317.00;;;7.46;100.00
71974;BME280;59840;52.122;5.404;2023-11-21T03:19:55;101323.06;;;7.46;100.00
71974;BME280;59840;52.122;5.404;2023-11-21T03:22:23;101328.91;;;7.48;100.00
71974;BME280;59840;52.122;5.404;2023-11-21T03:24:50;101332.91;;;7.51;100.00
71974;BME280;59840;52.122;5.404;2023-11-21T03:27:16;101330.09;;;7.52;100.00
71974;BME280;59840;52.122;5.404;2023-11-21T03:29:43;101324.84;;;7.52;100.00
71974;BME280;59840;52.122;5.404;2023-11-21T03:32:11;101332.28;;;7.55;100.00
71974;BME280;59840;52.122;5.404;2023-11-21T03:34:56;101330.47;;;7.56;100.00
71974;BME280;59840;52.122;5.404;2023-11-21T03:37:24;101335.31;;;7.59;100.00
71974;BME280;59840;52.122;5.404;2023-11-21T03:39:51;101334.28;;;7.60;100.00
71974;BME280;59840;52.122;5.404;2023-11-21T03:42:18;101341.16;;;7.61;100.00
71974;BME280;59840;52.122;5.404;2023-11-21T03:44:44;101342.75;;;7.62;100.00
71974;BME280;59840;52.122;5.404;2023-11-21T03:47:11;101334.06;;;7.61;100.00
71974;BME280;59840;52.122;5.404;2023-11-21T03:49:38;101337.25;;;7.63;100.00
71974;BME280;59840;52.122;5.404;2023-11-21T03:52:05;101345.94;;;7.64;100.00
71974;BME280;59840;52.122;5.404;2023-11-21T03:54:31;101347.34;;;7.66;100.00
71974;BME280;59840;52.122;5.404;2023-11-21T03:56:58;101357.66;;;7.68;100.00
71974;BME280;59840;52.122;5.404;2023-11-21T03:59:24;101356.84;;;7.67;100.00
71974;BME280;59840;52.122;5.404;2023-11-21T04:01:51;101365.53;;;7.68;100.00
71974;BME280;59840;52.122;5.404;2023-11-21T04:04:18;101366.13;;;7.70;100.00
71974;BME280;59840;52.122;5.404;2023-11-21T04:06:44;101368.97;;;7.68;100.00
71974;BME280;59840;52.122;5.404;2023-11-21T04:09:11;101366.13;;;7.70;100.00
71974;BME280;59840;52.122;5.404;2023-11-21T04:11:38;101365.09;;;7.71;100.00
71974;BME280;59840;52.122;5.404;2023-11-21T04:14:05;101370.75;;;7.74;100.00
71974;BME280;59840;52.122;5.404;2023-11-21T04:16:32;101376.81;;;7.75;100.00
71974;BME280;59840;52.122;5.404;2023-11-21T04:19:00;101380.22;;;7.76;100.00
71974;BME280;59840;52.122;5.404;2023-11-21T04:21:26;101385.47;;;7.76;100.00
71974;BME280;59840;52.122;5.404;2023-11-21T04:23:53;101376.38;;;7.78;100.00
71974;BME280;59840;52.122;5.404;2023-11-21T04:26:20;101395.16;;;7.82;100.00
71974;BME280;59840;52.122;5.404;2023-11-21T04:28:46;101391.28;;;7.84;100.00
71974;BME280;59840;52.122;5.404;2023-11-21T04:31:13;101397.94;;;7.87;100.00
71974;BME280;59840;52.122;5.404;2023-11-21T04:33:39;101397.75;;;7.88;100.00
71974;BME280;59840;52.122;5.404;2023-11-21T04:36:06;101394.09;;;7.89;100.00
71974;BME280;59840;52.122;5.404;2023-11-21T04:38:33;101403.81;;;7.89;100.00
71974;BME280;59840;52.122;5.404;2023-11-21T04:41:00;101412.69;;;7.88;100.00
71974;BME280;59840;52.122;5.404;2023-11-21T04:43:29;101411.50;;;7.84;100.00
71974;BME280;59840;52.122;5.404;2023-11-21T04:45:55;101414.53;;;7.87;100.00
71974;BME280;59840;52.122;5.404;2023-11-21T04:48:22;101420.38;;;7.89;100.00
71974;BME280;59840;52.122;5.404;2023-11-21T04:50:49;101429.06;;;7.90;100.00
71974;BME280;59840;52.122;5.404;2023-11-21T04:53:15;101421.97;;;7.90;100.00
71974;BME280;59840;52.122;5.404;2023-11-21T04:55:42;101417.31;;;7.92;100.00
71974;BME280;59840;52.122;5.404;2023-11-21T04:58:09;101420.53;;;7.94;100.00
71974;BME280;59840;52.122;5.404;2023-11-21T05:00:35;101412.44;;;7.96;100.00
71974;BME280;59840;52.122;5.404;2023-11-21T05:03:06;101416.44;;;7.98;100.00
71974;BME280;59840;52.122;5.404;2023-11-21T05:05:33;101420.09;;;7.97;100.00
71974;BME280;59840;52.122;5.404;2023-11-21T05:08:00;101433.03;;;7.99;100.00
71974;BME280;59840;52.122;5.404;2023-11-21T05:10:28;101431.78;;;8.01;100.00
71974;BME280;59840;52.122;5.404;2023-11-21T05:12:55;101436.03;;;8.02;100.00
71974;BME280;59840;52.122;5.404;2023-11-21T05:15:22;101436.84;;;8.03;100.00
71974;BME280;59840;52.122;5.404;2023-11-21T05:17:49;101436.63;;;8.04;100.00
71974;BME280;59840;52.122;5.404;2023-11-21T05:20:16;101441.88;;;8.04;100.00
71974;BME280;59840;52.122;5.404;2023-11-21T05:22:47;101447.53;;;8.08;100.00
71974;BME280;59840;52.122;5.404;2023-11-21T05:25:17;101448.31;;;8.08;100.00
71974;BME280;59840;52.122;5.404;2023-11-21T05:27:47;101450.75;;;8.10;100.00
71974;BME280;59840;52.122;5.404;2023-11-21T05:30:14;101444.25;;;8.13;100.00
71974;BME280;59840;52.122;5.404;2023-11-21T05:32:41;101454.34;;;8.16;100.00
71974;BME280;59840;52.122;5.404;2023-11-21T05:35:11;101451.72;;;8.16;100.00
71974;BME280;59840;52.122;5.404;2023-11-21T05:37:44;101459.59;;;8.16;100.00
71974;BME280;59840;52.122;5.404;2023-11-21T05:40:12;101462.03;;;8.17;100.00
71974;BME280;59840;52.122;5.404;2023-11-21T05:42:39;101454.94;;;8.18;100.00
71974;BME280;59840;52.122;5.404;2023-11-21T05:45:07;101459.19;;;8.19;100.00
71974;BME280;59840;52.122;5.404;2023-11-21T05:47:43;101466.06;;;8.20;100.00
71974;BME280;59840;52.122;5.404;2023-11-21T05:50:10;101461.81;;;8.19;100.00
71974;BME280;59840;52.122;5.404;2023-11-21T05:52:39;101466.06;;;8.20;100.00
71974;BME280;59840;52.122;5.404;2023-11-21T05:55:09;101477.38;;;8.20;100.00
71974;BME280;59840;52.122;5.404;2023-11-21T05:57:36;101480.59;;;8.22;100.00
71974;BME280;59840;52.122;5.404;2023-11-21T06:00:14;101481.41;;;8.23;100.00
71974;BME280;59840;52.122;5.404;2023-11-21T06:02:49;101488.28;;;8.24;100.00
71974;BME280;59840;52.122;5.404;2023-11-21T06:05:25;101483.63;;;8.26;100.00
71974;BME280;59840;52.122;5.404;2023-11-21T06:07:53;101489.88;;;8.25;100.00
71974;BME280;59840;52.122;5.404;2023-11-21T06:10:21;101494.13;;;8.26;100.00
71974;BME280;59840;52.122;5.404;2023-11-21T06:12:51;101501.81;;;8.27;100.00
71974;BME280;59840;52.122;5.404;2023-11-21T06:15:17;101502.59;;;8.28;100.00
71974;BME280;59840;52.122;5.404;2023-11-21T06:17:46;101498.75;;;8.30;100.00
71974;BME280;59840;52.122;5.404;2023-11-21T06:20:16;101513.31;;;8.33;100.00
71974;BME280;59840;52.122;5.404;2023-11-21T06:22:46;101507.84;;;8.34;100.00
71974;BME280;59840;52.122;5.404;2023-11-21T06:25:13;101506.38;;;8.38;100.00
71974;BME280;59840;52.122;5.404;2023-11-21T06:27:42;101521.97;;;8.40;100.00
71974;BME280;59840;52.122;5.404;2023-11-21T06:30:09;101508.38;;;8.43;100.00
71974;BME280;59840;52.122;5.404;2023-11-21T06:32:38;101518.91;;;8.43;100.00
71974;BME280;59840;52.122;5.404;2023-11-21T06:35:08;101519.50;;;8.45;100.00
71974;BME280;59840;52.122;5.404;2023-11-21T06:37:36;101527.97;;;8.47;100.00
71974;BME280;59840;52.122;5.404;2023-11-21T06:40:03;101531.41;;;8.48;100.00
71974;BME280;59840;52.122;5.404;2023-11-21T06:42:30;101528.56;;;8.49;100.00
71974;BME280;59840;52.122;5.404;2023-11-21T06:44:57;101527.34;;;8.52;100.00
71974;BME280;59840;52.122;5.404;2023-11-21T06:47:25;101530.78;;;8.52;100.00
71974;BME280;59840;52.122;5.404;2023-11-21T06:49:52;101533.78;;;8.56;100.00
71974;BME280;59840;52.122;5.404;2023-11-21T06:52:19;101533.59;;;8.57;100.00
71974;BME280;59840;52.122;5.404;2023-11-21T06:54:47;101534.97;;;8.60;100.00
71974;BME280;59840;52.122;5.404;2023-11-21T06:57:14;101540.03;;;8.61;100.00
71974;BME280;59840;52.122;5.404;2023-11-21T06:59:40;101549.91;;;8.66;100.00
71974;BME280;59840;52.122;5.404;2023-11-21T07:02:07;101544.19;;;8.69;100.00
71974;BME280;59840;52.122;5.404;2023-11-21T07:04:34;101550.66;;;8.73;100.00
71974;BME280;59840;52.122;5.404;2023-11-21T07:07:00;101559.94;;;8.76;100.00
71974;BME280;59840;52.122;5.404;2023-11-21T07:09:27;101559.50;;;8.79;100.00
71974;BME280;59840;52.122;5.404;2023-11-21T07:11:54;101555.22;;;8.84;100.00
71974;BME280;59840;52.122;5.404;2023-11-21T07:14:21;101573.66;;;8.84;100.00
71974;BME280;59840;52.122;5.404;2023-11-21T07:16:48;101566.94;;;8.88;100.00
71974;BME280;59840;52.122;5.404;2023-11-21T07:19:15;101583.09;;;8.92;100.00
71974;BME280;59840;52.122;5.404;2023-11-21T07:21:41;101573.75;;;8.96;100.00
71974;BME280;59840;52.122;5.404;2023-11-21T07:24:08;101579.63;;;8.98;100.00
71974;BME280;59840;52.122;5.404;2023-11-21T07:26:35;101586.03;;;9.02;100.00
71974;BME280;59840;52.122;5.404;2023-11-21T07:29:02;101593.50;;;9.05;100.00
71974;BME280;59840;52.122;5.404;2023-11-21T07:31:29;101594.69;;;9.09;100.00
71974;BME280;59840;52.122;5.404;2023-11-21T07:33:56;101589.22;;;9.11;100.00
71974;BME280;59840;52.122;5.404;2023-11-21T07:36:25;101593.69;;;9.10;100.00
71974;BME280;59840;52.122;5.404;2023-11-21T07:38:52;101595.88;;;9.13;100.00
71974;BME280;59840;52.122;5.404;2023-11-21T07:41:19;101594.84;;;9.14;100.00
71974;BME280;59840;52.122;5.404;2023-11-21T07:43:56;101593.84;;;9.15;100.00
71974;BME280;59840;52.122;5.404;2023-11-21T07:46:23;101599.69;;;9.17;100.00
71974;BME280;59840;52.122;5.404;2023-11-21T07:48:50;101606.94;;;9.22;100.00
71974;BME280;59840;52.122;5.404;2023-11-21T07:51:18;101604.91;;;9.24;100.00
71974;BME280;59840;52.122;5.404;2023-11-21T07:53:45;101618.88;;;9.24;100.00
71974;BME280;59840;52.122;5.404;2023-11-21T07:56:12;101621.09;;;9.27;100.00
71974;BME280;59840;52.122;5.404;2023-11-21T07:58:39;101622.47;;;9.30;100.00
71974;BME280;59840;52.122;5.404;2023-11-21T08:01:06;101625.50;;;9.33;100.00
71974;BME280;59840;52.122;5.404;2023-11-21T08:03:34;101627.44;;;9.38;100.00
71974;BME280;59840;52.122;5.404;2023-11-21T08:06:01;101641.59;;;9.44;100.00
71974;BME280;59840;52.122;5.404;2023-11-21T08:08:29;101642.19;;;9.46;100.00
71974;BME280;59840;52.122;5.404;2023-11-21T08:10:56;101645.41;;;9.48;100.00
71974;BME280;59840;52.122;5.404;2023-11-21T08:13:24;101651.41;;;9.55;100.00
71974;BME280;59840;52.122;5.404;2023-11-21T08:15:56;101654.66;;;9.57;100.00
71974;BME280;59840;52.122;5.404;2023-11-21T08:18:23;101658.09;;;9.57;100.00
71974;BME280;59840;52.122;5.404;2023-11-21T08:20:49;101669.59;;;9.63;100.00
71974;BME280;59840;52.122;5.404;2023-11-21T08:23:16;101676.47;;;9.64;100.00
71974;BME280;59840;52.122;5.404;2023-11-21T08:25:46;101681.31;;;9.67;100.00
71974;BME280;59840;52.122;5.404;2023-11-21T08:28:13;101679.03;;;9.70;100.00
71974;BME280;59840;52.122;5.404;2023-11-21T08:30:42;101688.09;;;9.74;100.00
71974;BME280;59840;52.122;5.404;2023-11-21T08:33:09;101686.06;;;9.77;100.00
71974;BME280;59840;52.122;5.404;2023-11-21T08:35:37;101697.19;;;9.79;100.00
71974;BME280;59840;52.122;5.404;2023-11-21T08:38:04;101708.53;;;9.79;100.00
71974;BME280;59840;52.122;5.404;2023-11-21T08:40:31;101711.56;;;9.83;100.00
71974;BME280;59840;52.122;5.404;2023-11-21T08:42:58;101727.16;;;9.84;100.00
71974;BME280;59840;52.122;5.404;2023-11-21T08:45:27;101722.69;;;9.85;100.00
71974;BME280;59840;52.122;5.404;2023-11-21T08:47:54;101724.69;;;9.89;100.00
71974;BME280;59840;52.122;5.404;2023-11-21T08:50:21;101728.28;;;9.95;100.00
71974;BME280;59840;52.122;5.404;2023-11-21T08:52:48;101733.50;;;10.01;100.00
71974;BME280;59840;52.122;5.404;2023-11-21T08:55:15;101726.16;;;10.03;100.00
71974;BME280;59840;52.122;5.404;2023-11-21T08:57:44;101728.00;;;10.03;100.00
71974;BME280;59840;52.122;5.404;2023-11-21T09:00:12;101723.75;;;10.02;100.00
71974;BME280;59840;52.122;5.404;2023-11-21T09:02:39;101725.16;;;10.04;100.00
71974;BME280;59840;52.122;5.404;2023-11-21T09:05:09;101724.47;;;10.09;100.00
71974;BME280;59840;52.122;5.404;2023-11-21T09:07:38;101735.53;;;10.18;100.00
71974;BME280;59840;52.122;5.404;2023-11-21T09:10:05;101749.50;;;10.25;100.00
71974;BME280;59840;52.122;5.404;2023-11-21T09:12:36;101756.75;;;10.29;100.00
71974;BME280;59840;52.122;5.404;2023-11-21T09:15:07;101763.44;;;10.32;100.00
71974;BME280;59840;52.122;5.404;2023-11-21T09:17:36;101761.81;;;10.31;100.00
71974;BME280;59840;52.122;5.404;2023-11-21T09:20:03;101768.47;;;10.33;100.00
71974;BME280;59840;52.122;5.404;2023-11-21T09:22:32;101762.41;;;10.33;100.00
71974;BME280;59840;52.122;5.404;2023-11-21T09:24:59;101768.91;;;10.30;100.00
71974;BME280;59840;52.122;5.404;2023-11-21T09:27:25;101772.78;;;10.28;100.00
71974;BME280;59840;52.122;5.404;2023-11-21T09:29:52;101779.47;;;10.30;100.00
71974;BME280;59840;52.122;5.404;2023-11-21T09:32:22;101780.50;;;10.29;100.00
71974;BME280;59840;52.122;5.404;2023-11-21T09:34:49;101785.19;;;10.27;100.00
71974;BME280;59840;52.122;5.404;2023-11-21T09:37:16;101798.59;;;10.26;100.00
71974;BME280;59840;52.122;5.404;2023-11-21T09:39:43;101809.56;;;10.23;100.00
71974;BME280;59840;52.122;5.404;2023-11-21T09:42:11;101802.69;;;10.22;100.00
71974;BME280;59840;52.122;5.404;2023-11-21T09:44:44;101816.88;;;10.21;100.00
71974;BME280;59840;52.122;5.404;2023-11-21T09:47:15;101813.63;;;10.19;100.00
71974;BME280;59840;52.122;5.404;2023-11-21T09:49:47;101817.28;;;10.18;100.00
71974;BME280;59840;52.122;5.404;2023-11-21T09:52:21;101826.22;;;10.17;100.00
71974;BME280;59840;52.122;5.404;2023-11-21T09:54:50;101828.28;;;10.15;100.00
71974;BME280;59840;52.122;5.404;2023-11-21T09:57:19;101834.78;;;10.12;100.00
71974;BME280;59840;52.122;5.404;2023-11-21T09:59:51;101847.16;;;10.12;100.00
71974;BME280;59840;52.122;5.404;2023-11-21T10:02:18;101842.31;;;10.08;100.00
71974;BME280;59840;52.122;5.404;2023-11-21T10:04:47;101830.38;;;10.06;100.00
71974;BME280;59840;52.122;5.404;2023-11-21T10:07:16;101844.81;;;10.03;100.00
71974;BME280;59840;52.122;5.404;2023-11-21T10:09:44;101846.88;;;10.01;100.00
71974;BME280;59840;52.122;5.404;2023-11-21T10:12:11;101841.81;;;10.00;100.00
71974;BME280;59840;52.122;5.404;2023-11-21T10:14:41;101853.16;;;10.00;100.00
71974;BME280;59840;52.122;5.404;2023-11-21T10:17:10;101854.78;;;10.01;100.00
71974;BME280;59840;52.122;5.404;2023-11-21T10:19:39;101865.91;;;10.03;100.00
71974;BME280;59840;52.122;5.404;2023-11-21T10:22:06;101865.47;;;10.06;100.00
71974;BME280;59840;52.122;5.404;2023-11-21T10:24:35;101876.38;;;10.10;100.00
71974;BME280;59840;52.122;5.404;2023-11-21T10:27:17;101878.38;;;10.15;100.00
71974;BME280;59840;52.122;5.404;2023-11-21T10:29:44;101884.84;;;10.19;100.00
71974;BME280;59840;52.122;5.404;2023-11-21T10:32:11;101883.03;;;10.19;100.00
71974;BME280;59840;52.122;5.404;2023-11-21T10:34:38;101882.03;;;10.20;100.00
71974;BME280;59840;52.122;5.404;2023-11-21T10:37:11;101890.34;;;10.17;100.00
71974;BME280;59840;52.122;5.404;2023-11-21T10:39:39;101897.28;;;10.12;100.00
71974;BME280;59840;52.122;5.404;2023-11-21T10:42:08;101906.63;;;10.07;100.00
71974;BME280;59840;52.122;5.404;2023-11-21T10:44:36;101907.50;;;10.01;100.00
71974;BME280;59840;52.122;5.404;2023-11-21T10:47:03;101925.38;;;9.99;100.00
71974;BME280;59840;52.122;5.404;2023-11-21T10:49:30;101922.94;;;9.98;100.00
71974;BME280;59840;52.122;5.404;2023-11-21T10:51:56;101931.06;;;9.96;100.00
71974;BME280;59840;52.122;5.404;2023-11-21T10:54:24;101927.84;;;9.94;100.00
71974;BME280;59840;52.122;5.404;2023-11-21T10:56:59;101941.44;;;9.91;100.00
71974;BME280;59840;52.122;5.404;2023-11-21T10:59:29;101942.03;;;9.93;100.00
71974;BME280;59840;52.122;5.404;2023-11-21T11:01:58;101945.47;;;9.94;100.00
71974;BME280;59840;52.122;5.404;2023-11-21T11:04:27;101941.03;;;9.94;100.00
71974;BME280;59840;52.122;5.404;2023-11-21T11:06:57;101949.94;;;9.93;100.00
71974;BME280;59840;52.122;5.404;2023-11-21T11:09:24;101939.41;;;9.93;100.00
71974;BME280;59840;52.122;5.404;2023-11-21T11:11:51;101942.03;;;9.93;100.00
71974;BME280;59840;52.122;5.404;2023-11-21T11:14:19;101945.66;;;9.99;100.00
71974;BME280;59840;52.122;5.404;2023-11-21T11:16:46;101941.19;;;9.99;100.00
71974;BME280;59840;52.122;5.404;2023-11-21T11:19:13;101937.53;;;10.00;100.00
71974;BME280;59840;52.122;5.404;2023-11-21T11:21:48;101951.75;;;9.99;100.00
71974;BME280;59840;52.122;5.404;2023-11-21T11:24:45;101961.47;;;9.99;100.00
71974;BME280;59840;52.122;5.404;2023-11-21T11:33:12;101961.25;;;10.00;100.00
71974;BME280;59840;52.122;5.404;2023-11-21T11:36:06;101959.81;;;10.04;100.00
71974;BME280;59840;52.122;5.404;2023-11-21T11:38:34;101960.38;;;10.06;100.00
71974;BME280;59840;52.122;5.404;2023-11-21T11:41:03;101960.38;;;10.06;100.00
71974;BME280;59840;52.122;5.404;2023-11-21T11:43:31;101967.88;;;10.09;100.00
71974;BME280;59840;52.122;5.404;2023-11-21T11:46:11;101976.38;;;10.12;100.00
71974;BME280;59840;52.122;5.404;2023-11-21T11:48:41;101973.97;;;10.10;100.00
71974;BME280;59840;52.122;5.404;2023-11-21T11:51:13;101973.97;;;10.10;100.00
71974;BME280;59840;52.122;5.404;2023-11-21T11:53:48;101979.03;;;10.12;100.00
71974;BME280;59840;52.122;5.404;2023-11-21T11:56:31;101981.44;;;10.13;100.00
71974;BME280;59840;52.122;5.404;2023-11-21T11:59:03;101978.59;;;10.15;100.00
71974;BME280;59840;52.122;5.404;2023-11-21T12:01:32;101986.91;;;10.18;100.00
71974;BME280;59840;52.122;5.404;2023-11-21T12:06:46;102001.91;;;10.18;100.00
71974;BME280;59840;52.122;5.404;2023-11-21T12:09:20;102002.72;;;10.18;100.00
71974;BME280;59840;52.122;5.404;2023-11-21T12:11:51;102009.44;;;10.14;100.00
71974;BME280;59840;52.122;5.404;2023-11-21T12:14:18;102003.94;;;10.16;100.00
71974;BME280;59840;52.122;5.404;2023-11-21T12:16:45;102004.38;;;10.13;100.00
71974;BME280;59840;52.122;5.404;2023-11-21T12:19:12;102009.66;;;10.13;100.00
71974;BME280;59840;52.122;5.404;2023-11-21T12:21:39;102010.66;;;10.12;100.00
71974;BME280;59840;52.122;5.404;2023-11-21T12:24:10;102010.88;;;10.10;100.00
71974;BME280;59840;52.122;5.404;2023-11-21T12:26:42;102013.13;;;10.06;100.00
71974;BME280;59840;52.122;5.404;2023-11-21T12:29:09;102013.13;;;10.06;100.00
71974;BME280;59840;52.122;5.404;2023-11-21T12:31:37;102016.38;;;10.08;100.00
71974;BME280;59840;52.122;5.404;2023-11-21T12:34:04;102013.59;;;10.03;100.00
71974;BME280;59840;52.122;5.404;2023-11-21T12:36:31;102011.38;;;10.00;100.00
71974;BME280;59840;52.122;5.404;2023-11-21T12:38:58;102004.25;;;10.01;100.00
71974;BME280;59840;52.122;5.404;2023-11-21T12:41:24;102015.03;;;9.99;100.00
71974;BME280;59840;52.122;5.404;2023-11-21T12:43:52;102031.84;;;9.98;100.00
71974;BME280;59840;52.122;5.404;2023-11-21T12:46:19;102032.06;;;9.97;100.00
71974;BME280;59840;52.122;5.404;2023-11-21T12:48:47;102027.59;;;9.97;100.00
71974;BME280;59840;52.122;5.404;2023-11-21T12:51:13;102031.25;;;9.96;100.00
71974;BME280;59840;52.122;5.404;2023-11-21T12:53:41;102033.91;;;9.96;100.00
71974;BME280;59840;52.122;5.404;2023-11-21T12:56:12;102033.91;;;9.96;100.00
71974;BME280;59840;52.122;5.404;2023-11-21T12:58:40;102047.09;;;9.96;100.00
71974;BME280;59840;52.122;5.404;2023-11-21T13:01:13;102048.50;;;9.99;100.00